Time;durP1;ratioP1;P1;durP2;ratioP2;P2;SDS_P1;SDS_P2;PMS_P1;PMS_P2;Temp;Humidity;BMP_temperature;BMP_pressure;BME280_temperature;BME280_humidity;BME280_pressure;Samples;Min_cycle;Max_cycle;Signal;HPM_P1;HPM_P2
2024/01/28 00:00:45;;;;;;;9.98;4.15;;;;;;;-144.05;65.68;57040.00;5098311;28;20038;-78
2024/01/28 00:03:11;;;;;;;11.30;4.60;;;;;;;-144.05;65.29;57018.75;5114222;28;20313;-77
2024/01/28 00:05:38;;;;;;;9.70;4.50;;;;;;;-144.05;65.49;57050.63;5101966;28;20488;-77
2024/01/28 00:08:06;;;;;;;16.63;4.70;;;1.80;99.90;;;-144.05;65.37;57065.47;5103614;28;20030;-78
2024/01/28 00:10:33;;;;;;;24.17;11.65;;;;;;;-144.05;65.23;57069.72;5098877;28;20053;-77
2024/01/28 00:12:59;;;;;;;15.63;8.48;;;;;;;-144.05;65.16;57063.34;5096021;28;20073;-78
2024/01/28 00:15:26;;;;;;;17.88;7.55;;;;;;;-144.05;66.01;57044.25;5110855;28;20095;-79
2024/01/28 00:17:58;;;;;;;15.40;7.38;;;0.70;99.90;;;-144.05;66.78;57069.72;5120751;28;20065;-79
2024/01/28 00:20:24;;;;;;;19.70;7.97;;;;;;;-144.05;67.70;57076.09;5107207;28;20233;-77
2024/01/28 00:22:50;;;;;;;16.73;7.32;;;;;;;-144.05;68.21;57076.09;5104956;28;20085;-78
2024/01/28 00:25:17;;;;;;;14.82;6.18;;;;;;;-144.05;67.69;57052.75;5100687;28;20024;-77
2024/01/28 00:27:44;;;;;;;17.25;8.32;;;;;;;-144.05;68.67;57086.72;5095481;28;20027;-79
2024/01/28 00:30:12;;;;;;;18.02;7.25;;;;;;;-144.05;68.51;57088.84;5109282;28;20042;-78
2024/01/28 00:32:40;;;;;;;19.00;7.68;;;;;;;-144.05;69.07;57088.84;5094080;28;20031;-79
2024/01/28 00:35:08;;;;;;;17.55;6.55;;;;;;;-144.05;69.41;57107.97;5095246;28;20315;-77
2024/01/28 00:37:34;;;;;;;14.00;6.03;;;;;;;-144.05;69.43;57122.84;5094463;28;20218;-78
2024/01/28 00:40:00;;;;;;;13.45;6.25;;;;;;;-144.05;69.78;57084.59;5092433;28;20027;-79
2024/01/28 00:42:27;;;;;;;12.80;6.03;;;;;;;-144.05;70.17;57093.09;5115595;28;20035;-76
2024/01/28 00:44:53;;;;;;;14.93;6.57;;;;;;;-144.05;70.27;57105.84;5098473;28;20492;-78
2024/01/28 00:47:19;;;;;;;14.05;5.97;;;;;;;-144.05;69.95;57095.22;5095119;28;20160;-78
2024/01/28 00:49:45;;;;;;;15.05;7.07;;;;;;;-144.05;69.93;57097.34;5096481;28;20109;-78
2024/01/28 00:52:11;;;;;;;15.05;6.65;;;;;;;-144.05;70.21;57099.47;5102355;28;20157;-78
2024/01/28 00:54:38;;;;;;;17.30;5.90;;;;;;;-144.05;71.75;57090.97;5092414;28;20024;-78
2024/01/28 00:57:04;;;;;;;20.27;6.47;;;;;;;-144.05;71.52;57107.97;5093903;28;20032;-78
2024/01/28 00:59:30;;;;;;;17.08;5.55;;;;;;;-144.05;71.42;57059.09;5093675;28;20622;-78
2024/01/28 01:01:57;;;;;;;13.32;5.82;;;;;;;-144.05;71.05;57076.09;5093629;28;20111;-78
2024/01/28 01:04:23;;;;;;;15.30;6.00;;;;;;;-144.05;71.14;57084.59;5093131;28;20042;-78
2024/01/28 01:06:50;;;;;;;15.32;6.38;;;;;;;-144.05;71.00;57084.59;5095791;28;20024;-78
2024/01/28 01:09:16;;;;;;;19.23;6.75;;;;;;;-144.05;71.10;57056.97;5093315;28;20032;-78
2024/01/28 01:11:45;;;;;;;16.25;7.00;;;-0.60;99.90;;;-144.05;71.18;57082.47;5091897;28;20141;-78
2024/01/28 01:14:11;;;;;;;14.38;6.15;;;;;;;-144.05;71.45;57095.22;5091656;28;20044;-78
2024/01/28 01:16:37;;;;;;;21.27;9.05;;;;;;;-144.05;71.96;57071.84;5093878;28;20036;-78
2024/01/28 01:19:03;;;;;;;22.42;7.50;;;;;;;-144.05;72.48;57086.72;5091599;28;20100;-78
2024/01/28 01:21:30;;;;;;;22.23;7.50;;;;;;;-144.05;71.81;57107.97;5091873;28;20111;-78
2024/01/28 01:23:56;;;;;;;20.00;6.35;;;;;;;-144.05;71.64;57097.34;5091181;28;20032;-77
2024/01/28 01:26:22;;;;;;;20.02;7.32;;;;;;;-144.05;71.90;57107.97;5092188;28;20408;-77
2024/01/28 01:28:48;;;;;;;18.98;7.05;;;;;;;-144.05;72.37;57127.09;5092932;28;20077;-77
2024/01/28 01:31:16;;;;;;;18.45;6.93;;;;;;;-144.05;72.46;57118.59;5091350;28;20036;-77
2024/01/28 01:33:42;;;;;;;20.40;6.97;;;;;;;-144.05;72.70;57127.09;5093104;28;20028;-77
2024/01/28 01:36:08;;;;;;;18.90;7.25;;;;;;;-144.05;72.22;57093.09;5092406;28;20028;-75
2024/01/28 01:38:34;;;;;;;18.25;6.55;;;;;;;-144.05;72.73;57099.47;5091158;28;20906;-78
2024/01/28 01:41:01;;;;;;;14.68;6.43;;;;;;;-144.05;72.43;57097.34;5092576;28;20030;-77
2024/01/28 01:43:27;;;;;;;14.30;7.03;;;;;;;-144.05;72.41;57073.97;5091821;28;20036;-77
2024/01/28 01:45:53;;;;;;;18.20;7.95;;;;;;;-144.05;72.66;57129.22;5092234;28;20032;-77
2024/01/28 01:48:21;;;;;;;23.50;7.45;;;-0.80;99.90;;;-144.05;72.77;57103.72;5092449;28;20039;-77
2024/01/28 01:50:48;;;;;;;17.25;6.72;;;;;;;-144.05;73.40;57135.56;5091082;28;20020;-77
2024/01/28 01:53:14;;;;;;;18.52;6.65;;;;;;;-144.05;73.01;57061.22;5092640;28;20036;-77
2024/01/28 01:55:41;;;;;;;17.38;7.72;;;;;;;-144.05;73.26;57095.22;5091844;28;20028;-77
2024/01/28 01:58:09;;;;;;;14.80;8.30;;;-1.90;99.90;;;-144.05;73.20;57107.97;5091752;28;20024;-76
2024/01/28 02:00:37;;;;;;;21.73;7.13;;;;;;;-144.05;73.07;57080.34;5092030;28;20051;-75
2024/01/28 02:03:04;;;;;;;25.08;7.78;;;;;;;-144.05;73.32;57090.97;5091879;28;20042;-78
2024/01/28 02:05:30;;;;;;;23.23;7.38;;;;;;;-144.05;73.19;57116.47;5091721;28;20092;-78
2024/01/28 02:07:56;;;;;;;18.17;8.02;;;;;;;-144.05;73.78;57086.72;5093801;28;20059;-78
2024/01/28 02:10:23;;;;;;;20.15;8.10;;;;;;;-144.05;73.67;57112.22;5091300;28;20118;-76
2024/01/28 02:12:50;;;;;;;16.80;6.63;;;;;;;-144.05;73.70;57120.72;5090446;28;20493;-77
2024/01/28 02:15:18;;;;;;;19.55;8.48;;;;;;;-144.05;73.70;57071.84;5091188;28;20039;-76
2024/01/28 02:17:44;;;;;;;25.35;7.65;;;;;;;-144.05;73.84;57103.72;5091988;28;20396;-79
2024/01/28 02:20:11;;;;;;;20.55;7.18;;;-1.40;99.90;;;-144.05;73.98;57095.22;5096270;28;20023;-77
2024/01/28 02:22:38;;;;;;;21.77;7.82;;;;;;;-144.05;74.07;57118.59;5097472;28;20397;-77
2024/01/28 02:25:05;;;;;;;25.60;8.23;;;;;;;-144.05;74.11;57112.22;5095792;28;20035;-78
2024/01/28 02:27:31;;;;;;;14.73;6.40;;;;;;;-144.05;74.20;57101.59;5091939;28;20074;-77
2024/01/28 02:29:57;;;;;;;18.50;6.85;;;;;;;-144.05;74.09;57071.84;5092197;28;20024;-77
2024/01/28 02:32:24;;;;;;;18.02;7.03;;;;;;;-144.05;74.26;57129.22;5090929;28;20085;-76
2024/01/28 02:34:50;;;;;;;20.77;7.55;;;;;;;-144.05;74.09;57129.22;5093167;28;20395;-77
2024/01/28 02:37:16;;;;;;;20.05;7.35;;;;;;;-144.05;74.29;57120.72;5101666;28;20115;-78
2024/01/28 02:39:42;;;;;;;16.38;7.38;;;;;;;-144.05;74.34;57086.72;5091691;28;20024;-77
2024/01/28 02:42:08;;;;;;;18.83;7.35;;;;;;;-144.05;74.33;57116.47;5091911;28;20036;-77
2024/01/28 02:44:35;;;;;;;22.42;6.80;;;;;;;-144.05;74.48;57084.59;5091283;28;20057;-78
2024/01/28 02:47:01;;;;;;;23.35;8.65;;;;;;;-144.05;74.81;57069.72;5091543;28;20024;-76
2024/01/28 02:49:27;;;;;;;21.08;8.38;;;;;;;-144.05;74.93;57127.09;5090260;28;20052;-76
2024/01/28 02:51:54;;;;;;;24.33;9.90;;;-1.60;99.90;;;-144.05;74.90;57124.97;5090494;28;20032;-78
2024/01/28 02:54:22;;;;;;;24.02;9.23;;;;;;;-144.05;74.69;57103.72;5103546;28;20042;-78
2024/01/28 02:56:50;;;;;;;19.10;7.82;;;;;;;-144.05;74.68;57076.09;5095201;28;20030;-78
2024/01/28 02:59:16;;;;;;;16.05;7.18;;;;;;;-144.05;74.82;57122.84;5091294;28;20040;-78
2024/01/28 03:01:49;;;;;;;17.00;7.85;;;-1.20;99.90;;;-144.05;74.79;57116.47;5090295;28;20040;-78
2024/01/28 03:04:15;;;;;;;18.50;7.78;;;;;;;-144.05;75.02;57116.47;5094959;28;20139;-78
2024/01/28 03:06:42;;;;;;;17.83;7.45;;;;;;;-144.05;74.92;57097.34;5100553;28;20035;-77
2024/01/28 03:09:09;;;;;;;25.52;8.40;;;;;;;-144.05;75.15;57116.47;5097686;28;20044;-78
2024/01/28 03:11:35;;;;;;;21.40;9.20;;;-0.10;99.90;;;-144.05;74.93;57116.47;5104625;28;20043;-78
2024/01/28 03:14:02;;;;;;;19.85;7.20;;;;;;;-144.05;75.33;57120.72;5114650;28;20092;-77
2024/01/28 03:16:28;;;;;;;22.45;8.18;;;;;;;-144.05;75.00;57040.00;5107261;28;20047;-77
2024/01/28 03:18:54;;;;;;;18.10;8.23;;;;;;;-144.05;75.40;57084.59;5092610;28;20028;-76
2024/01/28 03:21:20;;;;;;;19.60;8.43;;;;;;;-144.05;75.45;57073.97;5090370;28;20039;-78
2024/01/28 03:23:46;;;;;;;23.98;9.00;;;;;;;-144.05;75.43;57120.72;5091266;28;20520;-77
2024/01/28 03:26:13;;;;;;;18.90;8.90;;;;;;;-144.05;75.35;57110.09;5099446;28;20036;-77
2024/01/28 03:28:39;;;;;;;30.75;10.07;;;;;;;-144.05;75.66;57084.59;5093292;28;20016;-76
2024/01/28 03:31:05;;;;;;;22.27;9.07;;;;;;;-144.05;75.94;57093.09;5101843;28;20035;-78
2024/01/28 03:33:32;;;;;;;41.13;12.90;;;;;;;-144.05;75.67;57099.47;5093666;28;20169;-78
2024/01/28 03:35:59;;;;;;;22.90;8.43;;;;;;;-144.05;75.54;57097.34;5090715;28;20028;-77
2024/01/28 03:38:25;;;;;;;20.02;8.60;;;;;;;-144.05;75.88;57095.22;5090840;28;20081;-78
2024/01/28 03:40:51;;;;;;;19.15;8.38;;;;;;;-144.05;75.43;57116.47;5101352;28;20023;-76
2024/01/28 03:43:17;;;;;;;26.58;10.50;;;;;;;-144.05;75.55;57073.97;5089587;28;20069;-78
2024/01/28 03:45:44;;;;;;;27.35;9.35;;;;;;;-144.05;75.55;57118.59;5090717;28;20039;-76
2024/01/28 03:48:10;;;;;;;20.17;9.63;;;;;;;-144.05;75.35;57082.47;5091574;28;20035;-77
2024/01/28 03:50:36;;;;;;;21.48;7.47;;;;;;;-144.05;75.62;57116.47;5093141;28;20020;-77
2024/01/28 03:53:02;;;;;;;23.45;8.70;;;;;;;-144.05;75.68;57076.09;5098696;28;20535;-76
2024/01/28 03:55:29;;;;;;;19.88;8.38;;;;;;;-144.05;75.54;57105.84;5099324;28;20039;-74
2024/01/28 03:57:55;;;;;;;22.60;8.90;;;;;;;-144.05;75.55;57080.34;5094588;28;20035;-77
2024/01/28 04:00:28;;;;;;;20.73;8.98;;;;;;;-144.05;75.71;57139.81;5092768;28;20060;-77
2024/01/28 04:02:57;;;;;;;26.08;9.70;;;;;;;-144.05;75.55;57101.59;5094572;28;20028;-78
2024/01/28 04:05:24;;;;;;;21.15;8.77;;;;;;;-144.05;75.73;57099.47;5092572;28;20128;-77
2024/01/28 04:07:50;;;;;;;35.53;9.27;;;;;;;-144.05;75.85;57093.09;5092983;28;20134;-76
2024/01/28 04:10:17;;;;;;;23.25;9.00;;;;;;;-144.05;75.42;57103.72;5095160;28;20056;-76
2024/01/28 04:12:43;;;;;;;25.85;11.13;;;;;;;-144.05;75.20;57082.47;5094010;28;20111;-77
2024/01/28 04:15:09;;;;;;;15.23;7.35;;;;;;;-144.05;75.10;57080.34;5093560;28;20405;-78
2024/01/28 04:17:36;;;;;;;20.98;7.82;;;;;;;-144.05;75.06;57112.22;5094858;28;20024;-76
2024/01/28 04:20:04;;;;;;;22.02;8.50;;;;;;;-144.05;75.23;57090.97;5094687;28;20048;-78
2024/01/28 04:22:30;;;;;;;28.63;8.73;;;;;;;-144.05;75.34;57124.97;5095553;28;20028;-76
2024/01/28 04:24:57;;;;;;;22.52;9.10;;;;;;;-144.05;75.97;57080.34;5094261;28;20032;-78
2024/01/28 04:27:23;;;;;;;17.40;9.38;;;;;;;-144.05;75.79;57122.84;5092765;28;20389;-77
2024/01/28 04:29:49;;;;;;;26.35;8.75;;;;;;;-144.05;75.71;57095.22;5094516;28;20024;-76
2024/01/28 04:32:16;;;;;;;23.30;8.55;;;;;;;-144.05;75.82;57095.22;5093159;28;20127;-76
2024/01/28 04:34:42;;;;;;;17.75;7.90;;;;;;;-144.05;75.81;57078.22;5094234;28;20036;-78
2024/01/28 04:37:08;;;;;;;21.70;8.23;;;;;;;-144.05;76.04;57080.34;5099218;28;20037;-76
2024/01/28 04:39:35;;;;;;;12.95;7.05;;;;;;;-144.05;75.89;57105.84;5093215;28;20123;-77
2024/01/28 04:42:04;;;;;;;21.10;8.27;;;-1.90;99.90;;;-144.05;75.97;57093.09;5092403;28;20024;-78
2024/01/28 04:44:30;;;;;;;20.90;8.30;;;;;;;-144.05;75.79;57095.22;5099516;28;20103;-80
2024/01/28 04:46:57;;;;;;;20.83;8.77;;;;;;;-144.05;75.92;57124.97;5093744;28;20107;-77
2024/01/28 04:49:24;;;;;;;22.08;7.90;;;;;;;-144.05;76.22;57080.34;5094134;28;20039;-77
2024/01/28 04:51:51;;;;;;;16.35;7.82;;;-1.00;99.90;;;-144.05;76.40;57101.59;5102921;28;20027;-76
2024/01/28 04:54:18;;;;;;;20.40;8.63;;;;;;;-144.05;76.07;57112.22;5098780;28;20400;-78
2024/01/28 04:56:44;;;;;;;19.10;7.95;;;-2.40;99.90;;;-144.05;75.78;57101.59;5095849;28;20048;-78
2024/01/28 04:59:10;;;;;;;25.42;8.30;;;;;;;-144.05;76.13;57120.72;5093248;28;20401;-76
2024/01/28 05:01:38;;;;;;;18.67;7.07;;;;;;;-144.05;75.79;57120.72;5093134;28;20043;-78
2024/01/28 05:04:04;;;;;;;25.23;8.85;;;;;;;-144.05;76.15;57099.47;5093401;28;20118;-78
2024/01/28 05:06:36;;;;;;;19.55;8.07;;;;;;;-144.05;76.42;57093.09;5093248;28;20032;-78
2024/01/28 05:09:08;;;;;;;18.77;7.20;;;-2.00;99.90;;;-144.05;76.12;57114.34;5097560;28;20020;-78
2024/01/28 05:11:35;;;;;;;15.10;7.25;;;;;;;-144.05;75.99;57122.84;5099101;28;20035;-78
2024/01/28 05:14:01;;;;;;;14.85;6.30;;;;;;;-144.05;76.14;57137.69;5097422;28;20063;-77
2024/01/28 05:16:28;;;;;;;17.52;7.45;;;;;;;-144.05;75.97;57086.72;5095618;28;20497;-77
2024/01/28 05:18:56;;;;;;;21.08;8.18;;;;;;;-144.05;76.24;57133.44;5092013;28;20107;-78
2024/01/28 05:21:25;;;;;;;21.08;7.78;;;;;;;-144.05;75.94;57129.22;5092449;28;20393;-79
2024/01/28 05:23:51;;;;;;;15.52;8.15;;;;;;;-144.05;76.39;57124.97;5093573;28;20124;-77
2024/01/28 05:26:18;;;;;;;17.27;7.95;;;;;;;-144.05;76.31;57101.59;5093691;28;20447;-76
2024/01/28 05:28:47;;;;;;;20.67;8.73;;;;;;;-144.05;76.64;57116.47;5093730;28;20537;-79
2024/01/28 05:31:13;;;;;;;22.10;8.32;;;;;;;-144.05;76.59;57103.72;5092794;28;20051;-79
2024/01/28 05:33:40;;;;;;;20.42;9.38;;;;;;;-144.05;76.42;57150.44;5093936;28;20352;-77
2024/01/28 05:36:14;;;;;;;24.40;8.23;;;-2.10;99.90;;;-144.05;76.13;57129.22;5092342;28;20123;-77
2024/01/28 05:38:41;;;;;;;22.23;7.75;;;;;;;-144.05;76.22;57120.72;5094330;28;20491;-78
2024/01/28 05:41:08;;;;;;;18.05;7.18;;;-2.20;99.90;;;-144.05;76.05;57141.94;5099168;28;20020;-77
2024/01/28 05:43:35;;;;;;;18.23;7.53;;;;;;;-144.05;76.44;57099.47;5102281;28;20041;-78
2024/01/28 05:46:03;;;;;;;18.70;7.40;;;-2.40;99.90;;;-144.05;76.38;57141.94;5092095;28;20084;-76
2024/01/28 05:48:30;;;;;;;22.90;7.28;;;;;;;-144.05;76.46;57090.97;5097677;28;20113;-78
2024/01/28 05:50:56;;;;;;;17.55;7.63;;;;;;;-144.05;76.20;57131.31;5101877;28;20085;-75
2024/01/28 05:53:25;;;;;;;19.67;7.32;;;;;;;-144.05;76.16;57088.84;5091529;28;20105;-80
2024/01/28 05:55:52;;;;;;;19.85;9.07;;;;;;;-144.05;76.57;57099.47;5092111;28;20024;-77
2024/01/28 05:58:23;;;;;;;21.92;7.05;;;;;;;-144.05;76.34;57146.19;5096506;28;20511;-80
2024/01/28 06:00:49;;;;;;;15.15;7.05;;;;;;;-144.05;76.37;57112.22;5099102;28;20028;-80
2024/01/28 06:03:16;;;;;;;12.60;6.57;;;;;;;-144.05;76.47;57127.09;5093989;28;20036;-78
2024/01/28 06:05:42;;;;;;;18.60;8.05;;;;;;;-144.05;76.37;57120.72;5100164;28;20062;-77
2024/01/28 06:08:09;;;;;;;18.65;7.43;;;;;;;-144.05;76.37;57120.72;5115941;28;20040;-75
2024/01/28 06:10:35;;;;;;;18.88;8.43;;;;;;;-144.05;76.46;57135.56;5104328;28;20039;-77
2024/01/28 06:13:02;;;;;;;16.98;7.35;;;;;;;-144.05;76.60;57133.44;5104040;28;20043;-80
2024/01/28 06:15:28;;;;;;;18.15;6.85;;;;;;;-144.05;76.43;57120.72;5094313;28;20055;-80
2024/01/28 06:17:55;;;;;;;30.48;9.43;;;;;;;-144.05;76.50;57118.59;5095476;28;20036;-79
2024/01/28 06:20:21;;;;;;;14.48;6.72;;;;;;;-144.05;76.59;57124.97;5098033;28;20089;-79
2024/01/28 06:22:47;;;;;;;20.55;7.70;;;;;;;-144.05;76.54;57107.97;5105344;28;20038;-80
2024/01/28 06:25:13;;;;;;;10.27;5.43;;;;;;;-144.05;76.60;57127.09;5102219;28;20134;-80
2024/01/28 06:27:39;;;;;;;14.55;6.65;;;;;;;-144.05;76.53;57131.31;5103922;28;20028;-78
2024/01/28 06:30:06;;;;;;;17.35;6.95;;;-2.20;99.90;;;-144.05;76.41;57127.09;5121363;28;20464;-78
2024/01/28 06:32:33;;;;;;;18.50;7.22;;;;;;;-144.05;76.43;57124.97;5101036;28;20032;-76
2024/01/28 06:34:59;;;;;;;15.52;6.70;;;;;;;-144.05;76.61;57099.47;5099098;28;20033;-78
2024/01/28 06:37:26;;;;;;;18.35;6.50;;;;;;;-144.05;76.76;57105.84;5099909;28;20032;-79
2024/01/28 06:39:52;;;;;;;14.30;5.60;;;;;;;-144.05;76.92;57120.72;5104521;28;20582;-76
2024/01/28 06:42:19;;;;;;;15.57;6.63;;;;;;;-144.05;76.69;57139.81;5103307;28;20039;-77
2024/01/28 06:44:45;;;;;;;13.35;6.43;;;;;;;-144.05;76.78;57097.34;5098462;28;20036;-76
2024/01/28 06:47:11;;;;;;;13.15;6.88;;;;;;;-144.05;76.54;57095.22;5099511;28;20031;-77
2024/01/28 06:49:37;;;;;;;22.52;7.68;;;;;;;-144.05;75.78;57118.59;5096071;28;20024;-77
2024/01/28 06:52:04;;;;;;;21.30;8.00;;;;;;;-144.05;76.49;57133.44;5094250;28;20123;-78
2024/01/28 06:54:30;;;;;;;15.55;6.82;;;;;;;-144.05;76.08;57095.22;5098124;28;20067;-74
2024/01/28 06:56:57;;;;;;;18.60;6.60;;;;;;;-144.05;76.44;57116.47;5093808;28;20099;-76
2024/01/28 06:59:23;;;;;;;16.67;6.82;;;;;;;-144.05;76.84;57127.09;5098500;28;20125;-76
2024/01/28 07:01:49;;;;;;;13.60;6.18;;;;;;;-144.05;76.55;57127.09;5094879;28;20028;-77
2024/01/28 07:04:16;;;;;;;16.38;6.93;;;;;;;-144.05;76.68;57122.84;5100788;28;20069;-75
2024/01/28 07:06:42;;;;;;;14.95;6.53;;;;;;;-144.05;76.37;57114.34;5100340;28;20039;-76
2024/01/28 07:09:08;;;;;;;15.95;7.00;;;;;;;-144.05;76.52;57131.31;5093551;28;20024;-76
2024/01/28 07:11:35;;;;;;;21.55;6.95;;;;;;;-144.05;76.50;57131.31;5100880;28;20437;-77
2024/01/28 07:14:01;;;;;;;22.75;6.97;;;;;;;-144.05;76.32;57129.22;5097393;28;20028;-76
2024/01/28 07:16:27;;;;;;;15.80;7.22;;;;;;;-144.05;76.50;57144.06;5094576;28;20039;-77
2024/01/28 07:18:53;;;;;;;14.65;7.45;;;;;;;-144.05;76.55;57124.97;5101946;28;20085;-75
2024/01/28 07:21:19;;;;;;;19.42;7.38;;;;;;;-144.05;76.32;57120.72;5093605;28;20370;-76
2024/01/28 07:23:46;;;;;;;17.73;6.97;;;;;;;-144.05;76.56;57112.22;5095437;28;20036;-76
2024/01/28 07:26:12;;;;;;;15.15;7.00;;;;;;;-144.05;76.20;57052.75;5101082;28;20404;-75
2024/01/28 07:28:38;;;;;;;17.08;6.63;;;;;;;-144.05;76.06;57103.72;5100455;28;20028;-75
2024/01/28 07:31:06;;;;;;;12.50;6.18;;;;;;;-144.05;76.27;57116.47;5106450;28;20035;-76
2024/01/28 07:33:35;;;;;;;14.40;5.57;;;;;;;-144.05;76.26;57150.44;5101546;28;20046;-78
2024/01/28 07:36:01;;;;;;;13.00;6.38;;;;;;;-144.05;76.36;57116.47;5101027;28;20043;-76
2024/01/28 07:38:29;;;;;;;17.15;6.45;;;-2.10;99.90;;;-144.05;76.43;57141.94;5102959;28;20445;-76
2024/01/28 07:40:56;;;;;;;18.42;6.45;;;;;;;-144.05;76.32;57122.84;5108656;28;20100;-77
2024/01/28 07:43:23;;;;;;;19.70;6.57;;;;;;;-144.05;76.48;57122.84;5099361;28;20077;-78
2024/01/28 07:45:50;;;;;;;18.20;6.55;;;;;;;-144.05;76.72;57116.47;5100931;28;20043;-75
2024/01/28 07:48:17;;;;;;;15.85;6.05;;;;;;;-144.05;76.71;57110.09;5100340;28;20032;-77
2024/01/28 07:50:44;;;;;;;17.00;7.10;;;;;;;-144.05;76.71;57086.72;5098479;28;20115;-76
2024/01/28 07:53:11;;;;;;;14.70;6.32;;;;;;;-144.05;76.77;57090.97;5097806;28;20028;-77
2024/01/28 07:55:37;;;;;;;11.00;6.93;;;;;;;-144.05;76.39;57076.09;5097554;28;20032;-76
2024/01/28 07:58:04;;;;;;;12.88;5.32;;;;;;;-144.05;76.19;57073.97;5097064;28;20107;-75
2024/01/28 08:00:31;;;;;;;12.05;6.13;;;;;;;-144.05;75.29;57088.84;5095656;28;20038;-74
2024/01/28 08:02:57;;;;;;;16.92;5.78;;;;;;;-144.05;76.02;57071.84;5097339;28;20054;-76
2024/01/28 08:05:25;;;;;;;11.50;5.85;;;;;;;-144.05;76.25;57086.72;5095213;28;20505;-74
2024/01/28 08:07:52;;;;;;;14.07;6.30;;;;;;;-144.05;75.53;57061.22;5111226;28;20050;-77
2024/01/28 08:10:18;;;;;;;12.13;5.63;;;;;;;-144.05;76.13;57095.22;5098045;28;20081;-75
2024/01/28 08:12:44;;;;;;;10.40;5.22;;;;;;;-144.05;76.28;57056.97;5097022;28;20028;-75
2024/01/28 08:15:10;;;;;;;11.45;5.55;;;;;;;-144.05;75.91;57063.34;5100582;28;20043;-74
2024/01/28 08:17:37;;;;;;;10.30;5.75;;;;;;;-144.05;75.15;57044.25;5101431;28;20095;-77
2024/01/28 08:20:03;;;;;;;11.82;5.88;;;;;;;-144.05;74.63;57023.00;5098031;28;20083;-77
2024/01/28 08:22:29;;;;;;;8.85;5.72;;;-2.70;99.90;;;-144.05;73.89;57061.22;5112941;28;20152;-79
2024/01/28 08:24:55;;;;;;;12.18;5.22;;;;;;;-144.05;71.94;57040.00;5104416;28;20035;-76
2024/01/28 08:27:22;;;;;;;9.27;4.60;;;;;;;-144.05;71.24;57006.00;5098456;28;20031;-77
2024/01/28 08:29:48;;;;;;;10.38;5.22;;;;;;;-144.05;70.81;57044.25;5098994;28;20028;-77
2024/01/28 08:32:14;;;;;;;12.07;4.93;;;-1.40;99.90;;;-144.05;69.43;57027.25;5097536;28;20032;-77
2024/01/28 08:34:40;;;;;;;9.20;5.10;;;-1.30;99.90;;;-144.05;68.38;57061.22;5101251;28;20676;-77
2024/01/28 08:37:06;;;;;;;9.20;5.78;;;;;;;-144.05;67.49;57023.00;5098492;28;20024;-77
2024/01/28 08:39:32;;;;;;;13.57;5.32;;;2.90;99.90;;;-144.05;66.96;57040.00;5096465;28;20556;-79
2024/01/28 08:41:59;;;;;;;12.02;4.47;;;;;;;-144.05;66.34;57044.25;5097449;28;20028;-80
2024/01/28 08:44:25;;;;;;;11.85;5.32;;;-0.40;99.90;;;-144.05;65.19;57025.13;5098136;28;20520;-79
2024/01/28 08:46:51;;;;;;;13.77;5.47;;;-0.20;99.90;;;-144.05;64.45;57031.50;5097949;28;20477;-75
2024/01/28 08:49:17;;;;;;;20.73;7.65;;;-0.80;99.90;;;-144.05;63.25;57012.38;5097502;28;20043;-78
2024/01/28 08:51:43;;;;;;;11.52;6.40;;;;;;;-144.05;62.30;57023.00;5097928;28;20066;-78
2024/01/28 08:54:12;;;;;;;16.90;5.95;;;0.10;99.90;;;-144.05;62.42;57042.13;5097331;28;20055;-77
2024/01/28 08:56:37;;;;;;;12.85;5.70;;;0.50;99.90;;;-144.05;62.50;57050.63;5102416;28;20046;-78
2024/01/28 08:59:03;;;;;;;13.15;6.50;;;0.20;99.90;;;-144.05;62.07;57003.88;5101733;28;20423;-79
2024/01/28 09:01:29;;;;;;;12.85;5.90;;;-0.20;99.90;;;-144.05;61.16;57018.75;5100545;28;20038;-79
2024/01/28 09:03:55;;;;;;;13.40;6.35;;;0.00;99.90;;;-144.05;61.38;57008.13;5124627;28;20012;-78
2024/01/28 09:06:21;;;;;;;9.70;5.03;;;0.70;99.90;;;-144.05;60.29;57012.38;5107923;28;20039;-79
2024/01/28 09:08:46;;;;;;;10.38;5.10;;;1.10;99.90;;;-144.05;60.64;57018.75;5096772;28;20036;-79
2024/01/28 09:11:13;;;;;;;10.15;5.05;;;1.60;99.90;;;-144.05;59.94;56984.78;5113324;28;20024;-76
2024/01/28 09:13:38;;;;;;;11.30;5.30;;;1.30;99.90;;;-144.05;59.06;57020.88;5102455;28;20039;-76
2024/01/28 09:16:05;;;;;;;12.95;6.13;;;1.90;99.90;;;-144.05;57.42;57003.88;5111918;28;20203;-77
2024/01/28 09:18:31;;;;;;;15.10;7.40;;;1.20;99.90;;;-144.05;56.57;56999.63;5103868;28;20177;-78
2024/01/28 09:20:57;;;;;;;11.27;6.10;;;1.80;99.90;;;-144.05;56.63;57016.63;5096299;28;20024;-77
2024/01/28 09:23:22;;;;;;;11.32;5.75;;;5.20;99.90;;;-144.05;56.26;56993.25;5109942;28;20040;-79
2024/01/28 09:25:48;;;;;;;9.88;5.00;;;1.90;99.90;;;-144.05;55.68;56984.78;5100520;28;20032;-76
2024/01/28 09:28:14;;;;;;;10.30;4.25;;;;;;;-144.05;53.92;56997.50;5097512;28;20028;-76
2024/01/28 09:30:41;;;;;;;8.18;5.00;;;2.70;99.90;;;-144.05;53.18;56984.78;5097142;28;20036;-78
2024/01/28 09:33:10;;;;;;;8.85;4.70;;;2.60;99.90;;;-144.05;52.67;56989.00;5099913;28;20031;-77
2024/01/28 09:35:39;;;;;;;11.30;5.35;;;2.00;99.90;;;-144.05;51.89;56993.25;5097432;28;20024;-79
2024/01/28 09:38:08;;;;;;;11.95;5.65;;;2.60;99.90;;;-144.05;51.88;56980.53;5097678;28;20024;-78
2024/01/28 09:40:34;;;;;;;9.60;4.85;;;2.90;99.90;;;-144.05;51.68;56963.53;5104651;28;20051;-78
2024/01/28 09:43:30;;;;;;;11.88;5.07;;;2.50;99.90;;;-144.05;52.34;56986.91;5098293;28;20086;-79
2024/01/28 09:46:00;;;;;;;10.02;5.47;;;5.90;99.90;;;-144.05;52.21;56980.53;5101006;28;20028;-78
2024/01/28 09:48:27;;;;;;;12.90;4.55;;;4.70;99.90;;;-144.05;52.21;56976.28;5096744;28;20157;-78
2024/01/28 09:50:54;;;;;;;11.38;4.45;;;4.20;99.90;;;-144.05;50.85;56991.13;5096644;28;20528;-79
2024/01/28 09:53:19;;;;;;;8.93;4.25;;;8.00;99.90;;;-144.05;49.92;56972.03;5097204;28;20024;-79
2024/01/28 09:55:45;;;;;;;13.77;4.70;;;4.50;99.90;;;-144.05;49.26;56986.91;5094168;28;20101;-80
2024/01/28 09:58:12;;;;;;;12.73;4.88;;;7.60;99.90;;;-144.05;49.27;56984.78;5096557;28;20024;-78
2024/01/28 10:00:38;;;;;;;11.88;4.50;;;8.30;99.90;;;-144.05;49.40;56982.66;5096342;28;20028;-78
2024/01/28 10:03:04;;;;;;;11.10;4.30;;;8.40;99.90;;;-144.05;48.29;56972.03;5096583;28;20020;-77
2024/01/28 10:05:31;;;;;;;9.15;4.35;;;7.50;99.90;;;-144.05;48.04;56980.53;5094260;28;20032;-76
2024/01/28 10:08:03;;;;;;;7.80;4.15;;;8.70;99.90;;;-144.05;47.72;56967.78;5102156;27;20640;-77
2024/01/28 10:10:33;;;;;;;8.98;4.18;;;7.30;99.90;;;-144.05;47.34;56967.78;5095401;28;20062;-76
2024/01/28 10:13:00;;;;;;;9.82;4.32;;;8.10;99.90;;;-144.05;46.97;56957.16;5108968;28;20032;-80
2024/01/28 10:15:27;;;;;;;8.63;3.85;;;8.80;99.90;;;-144.05;46.66;56974.16;5101928;28;20027;-77
2024/01/28 10:17:53;;;;;;;7.15;3.75;;;10.80;99.90;;;-144.05;45.75;56959.28;5094940;28;20028;-78
2024/01/28 10:20:23;;;;;;;12.70;4.82;;;11.00;99.90;;;-144.05;44.54;56974.16;5093917;28;20103;-79
2024/01/28 10:22:51;;;;;;;9.07;3.85;;;;;;;-144.05;44.11;56976.28;5094642;28;20100;-77
2024/01/28 10:25:18;;;;;;;6.22;2.40;;;11.00;99.90;;;-144.05;42.45;56955.03;5093655;28;20499;-77
2024/01/28 10:27:47;;;;;;;7.30;2.20;;;14.50;99.90;;;-144.05;41.52;56972.03;5095349;28;20031;-76
2024/01/28 10:30:16;;;;;;;5.82;2.50;;;13.90;99.90;;;-144.05;39.60;56972.03;5095680;28;20107;-78
2024/01/28 10:32:43;;;;;;;3.25;1.60;;;14.40;99.90;;;-144.05;36.66;56955.03;5094704;28;20020;-78
2024/01/28 10:35:12;;;;;;;3.22;1.50;;;8.00;98.00;;;-144.05;34.72;56942.28;5093573;28;21501;-78
2024/01/28 10:37:41;;;;;;;3.15;1.52;;;8.00;97.80;;;-144.05;35.21;56965.66;5094100;28;20089;-77
2024/01/28 10:40:09;;;;;;;3.72;1.20;;;14.70;98.10;;;-144.05;34.67;56952.91;5093884;28;20396;-79
2024/01/28 10:42:41;;;;;;;2.72;1.42;;;14.10;97.20;;;-144.05;34.27;56944.41;5094244;28;20392;-79
2024/01/28 10:45:11;;;;;;;3.03;1.05;;;14.50;96.70;;;-144.05;34.04;56942.28;5094113;28;20366;-78
2024/01/28 10:47:44;;;;;;;2.38;1.27;;;8.90;94.00;;;-144.05;33.53;56969.91;5110476;28;20053;-78
2024/01/28 10:50:15;;;;;;;3.10;1.15;;;14.90;95.70;;;-144.05;33.67;56993.25;5095239;28;20048;-78